createdAt,value
2019-06-26T00:00:21.480Z,64.37
2019-06-26T00:02:50.028Z,70.08
2019-06-26T00:05:18.675Z,57.23
2019-06-26T00:07:47.358Z,65.92
2019-06-26T00:10:15.847Z,62.65
2019-06-26T00:12:44.874Z,53.45
2019-06-26T00:15:13.396Z,64.30
2019-06-26T00:17:42.034Z,60.40
2019-06-26T00:20:10.516Z,70.08
2019-06-26T00:22:39.207Z,73.30
2019-06-26T00:25:07.742Z,70.60
2019-06-26T00:27:36.355Z,73.55
2019-06-26T00:30:06.327Z,69.03
2019-06-26T00:32:34.827Z,71.28
2019-06-26T00:35:03.438Z,74.53
2019-06-26T00:37:31.997Z,78.90
2019-06-26T00:40:00.583Z,67.73
2019-06-26T00:42:29.151Z,68.23
2019-06-26T00:44:57.819Z,57.13
2019-06-26T00:47:26.366Z,66.25
2019-06-26T00:49:54.851Z,61.18
2019-06-26T00:52:23.394Z,69.77
2019-06-26T00:54:52.017Z,64.33
2019-06-26T00:57:20.502Z,82.30
2019-06-26T00:59:49.061Z,74.37
2019-06-26T01:02:17.573Z,73.43
2019-06-26T01:04:53.565Z,75.90
2019-06-26T01:07:22.094Z,81.80
2019-06-26T01:09:50.696Z,73.47
2019-06-26T01:12:19.362Z,75.23
2019-06-26T01:14:47.949Z,75.80
2019-06-26T01:17:16.455Z,77.73
2019-06-26T01:19:45.048Z,75.30
2019-06-26T01:22:13.589Z,66.50
2019-06-26T01:24:42.152Z,65.63
2019-06-26T01:27:10.845Z,65.37
2019-06-26T01:29:39.334Z,68.47
2019-06-26T01:32:07.944Z,78.00
2019-06-26T01:34:36.449Z,72.00
2019-06-26T01:37:04.920Z,75.30
2019-06-26T01:39:33.551Z,79.37
2019-06-26T01:42:02.164Z,76.10
2019-06-26T01:44:30.613Z,87.97
2019-06-26T01:46:59.261Z,81.27
2019-06-26T01:49:27.826Z,82.17
2019-06-26T01:51:56.487Z,85.70
2019-06-26T01:54:25.063Z,76.63
2019-06-26T01:56:53.598Z,77.87
2019-06-26T01:59:22.185Z,68.77
2019-06-26T02:01:50.797Z,64.50
2019-06-26T02:04:19.385Z,65.43
2019-06-26T02:06:47.923Z,71.83
2019-06-26T02:09:16.616Z,83.50
2019-06-26T02:11:45.235Z,82.40
2019-06-26T02:14:29.629Z,74.00
2019-06-26T02:16:43.895Z,88.20
2019-06-26T02:19:14.016Z,82.97
2019-06-26T02:21:42.556Z,85.60
2019-06-26T02:24:11.109Z,91.00
2019-06-26T02:26:39.673Z,81.80
2019-06-26T02:29:08.207Z,79.33
2019-06-26T02:31:36.882Z,77.03
2019-06-26T02:34:05.361Z,86.10
2019-06-26T02:36:33.864Z,85.03
2019-06-26T02:39:02.483Z,78.57
2019-06-26T02:41:31.316Z,94.53
2019-06-26T02:43:59.878Z,93.80
2019-06-26T02:46:28.472Z,92.33
2019-06-26T02:48:57.058Z,99.87
2019-06-26T02:51:25.526Z,102.57
2019-06-26T02:53:54.093Z,113.63
2019-06-26T02:56:22.842Z,104.30
2019-06-26T02:58:51.322Z,100.93
2019-06-26T03:01:19.801Z,109.30
2019-06-26T03:03:48.328Z,103.63
2019-06-26T03:06:16.816Z,108.37
2019-06-26T03:08:45.306Z,99.87
2019-06-26T03:11:13.828Z,97.87
2019-06-26T03:13:42.293Z,98.00
2019-06-26T03:16:10.842Z,104.77
2019-06-26T03:18:39.362Z,109.63
2019-06-26T03:21:07.981Z,106.87
2019-06-26T03:23:36.514Z,101.30
2019-06-26T03:26:05.023Z,107.37
2019-06-26T03:28:33.640Z,94.73
2019-06-26T03:31:02.155Z,95.57
2019-06-26T03:33:30.689Z,97.27
2019-06-26T03:35:59.235Z,94.43
2019-06-26T03:38:27.718Z,107.13
2019-06-26T03:40:56.363Z,108.93
2019-06-26T03:43:24.888Z,94.27
2019-06-26T03:45:53.366Z,95.63
2019-06-26T03:48:21.896Z,118.17
2019-06-26T03:50:50.379Z,128.60
2019-06-26T03:53:18.859Z,122.93
2019-06-26T03:55:47.371Z,120.77
2019-06-26T03:58:15.927Z,120.60
2019-06-26T04:00:44.586Z,129.33
2019-06-26T04:03:13.169Z,114.80
2019-06-26T04:05:41.761Z,109.70
2019-06-26T04:08:10.245Z,107.83
2019-06-26T04:10:38.801Z,84.63
2019-06-26T04:13:07.494Z,88.30
2019-06-26T04:15:42.268Z,90.97
2019-06-26T04:18:06.293Z,104.53
2019-06-26T04:20:34.930Z,96.67
2019-06-26T04:23:03.482Z,96.70
2019-06-26T04:25:32.062Z,92.33
2019-06-26T04:28:00.593Z,97.73
2019-06-26T04:30:29.077Z,101.00
2019-06-26T04:32:57.677Z,86.53
2019-06-26T04:35:26.263Z,79.13
2019-06-26T04:37:54.794Z,74.63
2019-06-26T04:40:23.485Z,75.43
2019-06-26T04:42:52.071Z,70.67
2019-06-26T04:45:20.715Z,73.00
2019-06-26T04:47:49.266Z,79.40
2019-06-26T04:50:17.838Z,76.63
2019-06-26T04:52:46.401Z,70.73
2019-06-26T04:55:15.027Z,71.90
2019-06-26T04:57:43.687Z,66.03
2019-06-26T05:00:12.334Z,70.30
2019-06-26T05:02:40.947Z,65.53
2019-06-26T05:05:10.588Z,62.13
2019-06-26T05:07:39.062Z,75.47
2019-06-26T05:10:08.498Z,76.37
2019-06-26T05:12:37.097Z,71.03
2019-06-26T05:15:07.574Z,62.87
2019-06-26T05:17:36.196Z,73.97
2019-06-26T05:20:08.060Z,66.67
2019-06-26T05:22:36.507Z,63.07
2019-06-26T05:25:08.585Z,68.10
2019-06-26T05:27:37.186Z,63.43
2019-06-26T05:30:08.657Z,70.17
2019-06-26T05:32:37.180Z,72.27
2019-06-26T05:35:07.520Z,67.13
2019-06-26T05:37:36.049Z,64.00
2019-06-26T05:40:09.491Z,62.20
2019-06-26T05:42:38.132Z,61.30
2019-06-26T05:45:06.663Z,60.00
2019-06-26T05:47:35.255Z,63.93
2019-06-26T05:50:07.695Z,52.80
2019-06-26T05:52:36.252Z,53.13
2019-06-26T05:55:06.047Z,54.33
2019-06-26T05:57:34.654Z,57.07
2019-06-26T06:00:05.190Z,56.00
2019-06-26T06:02:33.632Z,51.77
2019-06-26T06:05:02.150Z,49.57
2019-06-26T06:07:32.056Z,57.83
2019-06-26T06:10:00.549Z,55.30
2019-06-26T06:12:29.269Z,63.90
2019-06-26T06:14:57.852Z,65.77
2019-06-26T06:17:27.526Z,66.17
2019-06-26T06:19:56.245Z,66.73
2019-06-26T06:22:27.477Z,64.30
2019-06-26T06:24:55.289Z,57.40
2019-06-26T06:27:23.836Z,63.17
2019-06-26T06:29:52.439Z,59.33
2019-06-26T06:32:21.211Z,61.77
2019-06-26T06:34:49.754Z,68.43
2019-06-26T06:37:18.486Z,68.97
2019-06-26T06:39:47.085Z,69.93
2019-06-26T06:42:15.712Z,71.47
2019-06-26T06:44:44.693Z,62.43
2019-06-26T06:47:13.427Z,74.73
2019-06-26T06:49:42.169Z,79.77
2019-06-26T06:52:10.753Z,76.73
2019-06-26T06:54:39.399Z,75.13
2019-06-26T06:57:07.993Z,74.00
2019-06-26T06:59:36.469Z,69.80
2019-06-26T07:02:05.189Z,66.90
2019-06-26T07:04:33.919Z,73.67
2019-06-26T07:07:02.393Z,81.97
2019-06-26T07:09:30.986Z,65.87
2019-06-26T07:11:59.621Z,64.37
2019-06-26T07:14:28.225Z,76.30
2019-06-26T07:16:56.922Z,70.07
2019-06-26T07:19:25.435Z,68.30
2019-06-26T07:21:54.205Z,76.47
2019-06-26T07:24:22.789Z,75.90
2019-06-26T07:26:51.441Z,70.37
2019-06-26T07:29:21.354Z,67.87
2019-06-26T07:31:50.111Z,89.03
2019-06-26T07:34:18.669Z,75.23
2019-06-26T07:36:47.439Z,66.40
2019-06-26T07:39:16.201Z,71.67
2019-06-26T07:41:44.793Z,67.47
2019-06-26T07:44:13.642Z,66.17
2019-06-26T07:46:42.377Z,75.53
2019-06-26T07:49:11.000Z,70.57
2019-06-26T07:51:39.769Z,76.93
2019-06-26T07:54:08.461Z,70.80
2019-06-26T07:56:37.215Z,70.23
2019-06-26T07:59:06.039Z,70.23
2019-06-26T08:01:34.765Z,66.20
2019-06-26T08:04:03.284Z,75.57
2019-06-26T08:06:32.181Z,62.70
2019-06-26T08:09:00.833Z,64.37
2019-06-26T08:11:31.073Z,65.27
2019-06-26T08:13:59.917Z,57.50
2019-06-26T08:16:34.312Z,65.93
2019-06-26T08:19:01.091Z,64.40
2019-06-26T08:21:29.726Z,59.50
2019-06-26T08:24:00.390Z,55.13
2019-06-26T08:26:29.196Z,44.97
2019-06-26T08:28:58.036Z,56.40
2019-06-26T08:31:26.773Z,52.10
2019-06-26T08:33:55.546Z,48.80
2019-06-26T08:36:27.250Z,41.57
2019-06-26T08:38:56.073Z,50.03
2019-06-26T08:41:24.901Z,48.93
2019-06-26T08:43:53.551Z,49.10
2019-06-26T08:46:22.393Z,48.77
2019-06-26T08:48:53.874Z,44.43
2019-06-26T08:51:24.274Z,47.97
2019-06-26T08:53:52.854Z,43.47
2019-06-26T08:56:21.618Z,53.63
2019-06-26T08:58:50.298Z,48.80
2019-06-26T09:01:18.923Z,37.40
2019-06-26T09:03:49.381Z,48.00
2019-06-26T09:06:18.199Z,52.13
2019-06-26T09:08:46.932Z,41.98
2019-06-26T09:11:16.198Z,34.90
2019-06-26T09:13:46.642Z,52.40
2019-06-26T09:16:15.326Z,52.83
2019-06-26T09:18:43.987Z,47.23
2019-06-26T09:21:13.661Z,47.33
2019-06-26T09:23:42.327Z,51.37
2019-06-26T09:26:10.977Z,48.77
2019-06-26T09:28:40.110Z,45.10
2019-06-26T09:31:08.740Z,44.95
2019-06-26T09:33:37.401Z,41.73
2019-06-26T09:36:06.955Z,38.50
2019-06-26T09:38:35.673Z,39.13
2019-06-26T09:41:04.269Z,46.33
2019-06-26T09:43:32.902Z,38.80
2019-06-26T09:46:01.783Z,39.75
2019-06-26T09:48:30.451Z,49.65
2019-06-26T09:50:59.080Z,46.00
2019-06-26T09:53:27.671Z,46.18
2019-06-26T09:55:56.185Z,44.80
2019-06-26T09:58:24.766Z,41.18
2019-06-26T10:00:53.434Z,46.77
2019-06-26T10:03:22.190Z,39.67
2019-06-26T10:05:50.899Z,39.87
2019-06-26T10:08:19.453Z,38.33
2019-06-26T10:10:48.015Z,43.40
2019-06-26T10:13:16.664Z,42.23
2019-06-26T10:15:45.235Z,42.80
2019-06-26T10:18:13.779Z,41.27
2019-06-26T10:20:42.683Z,40.83
2019-06-26T10:23:11.356Z,42.85
2019-06-26T10:25:39.899Z,37.40
2019-06-26T10:28:08.401Z,39.35
2019-06-26T10:30:37.006Z,43.87
2019-06-26T10:33:05.487Z,40.98
2019-06-26T10:35:34.030Z,38.88
2019-06-26T10:38:02.687Z,35.35
2019-06-26T10:40:31.317Z,36.50
2019-06-26T10:43:00.219Z,45.60
2019-06-26T10:45:29.255Z,44.88
2019-06-26T10:47:57.853Z,47.43
2019-06-26T10:50:26.869Z,43.50
2019-06-26T10:52:55.407Z,46.47
2019-06-26T10:55:24.093Z,41.83
2019-06-26T10:57:52.833Z,40.98
2019-06-26T11:00:21.466Z,47.40
2019-06-26T11:02:50.252Z,42.45
2019-06-26T11:05:19.049Z,37.63
2019-06-26T11:07:47.528Z,46.70
2019-06-26T11:10:16.104Z,45.78
2019-06-26T11:12:48.748Z,44.30
2019-06-26T11:15:14.909Z,45.23
2019-06-26T11:17:43.653Z,36.40
2019-06-26T11:20:12.252Z,32.63
2019-06-26T11:22:40.865Z,29.07
2019-06-26T11:25:09.590Z,38.70
2019-06-26T11:27:38.213Z,31.50
2019-06-26T11:30:10.805Z,34.63
2019-06-26T11:32:39.581Z,36.88
2019-06-26T11:35:12.523Z,45.80
2019-06-26T11:37:38.441Z,42.03
2019-06-26T11:40:07.397Z,41.25
2019-06-26T11:42:36.038Z,42.95
2019-06-26T11:45:06.490Z,37.63
2019-06-26T11:47:35.156Z,33.20
2019-06-26T11:50:08.363Z,35.70
2019-06-26T11:52:38.757Z,35.55
2019-06-26T11:55:11.480Z,31.47
2019-06-26T11:57:40.251Z,39.25
2019-06-26T12:00:11.662Z,38.42
2019-06-26T12:02:40.653Z,40.80
2019-06-26T12:05:09.622Z,45.12
2019-06-26T12:07:38.324Z,36.10
2019-06-26T12:10:07.350Z,40.10
2019-06-26T12:12:36.184Z,48.85
2019-06-26T12:15:05.864Z,44.83
2019-06-26T12:17:34.450Z,43.55
2019-06-26T12:20:17.283Z,48.75
2019-06-26T12:22:33.365Z,48.17
2019-06-26T12:25:01.959Z,42.60
2019-06-26T12:27:30.759Z,43.17
2019-06-26T12:29:59.308Z,41.85
2019-06-26T12:32:27.961Z,45.80
2019-06-26T12:34:56.651Z,56.73
2019-06-26T12:37:36.900Z,49.55
2019-06-26T12:39:55.821Z,35.75
2019-06-26T12:42:24.446Z,37.40
2019-06-26T12:44:53.139Z,43.98
2019-06-26T12:47:21.690Z,42.53
2019-06-26T12:49:50.464Z,43.05
2019-06-26T12:52:19.122Z,37.00
2019-06-26T12:54:47.656Z,33.73
2019-06-26T12:57:16.353Z,45.73
2019-06-26T12:59:56.715Z,36.10
2019-06-26T13:02:15.420Z,36.80
2019-06-26T13:04:45.077Z,43.92
2019-06-26T13:07:13.909Z,47.90
2019-06-26T13:09:42.616Z,50.60
2019-06-26T13:12:11.255Z,48.00
2019-06-26T13:14:39.994Z,45.52
2019-06-26T13:17:08.441Z,47.70
2019-06-26T13:19:37.061Z,53.25
2019-06-26T13:22:05.656Z,52.50
2019-06-26T13:24:34.216Z,53.90
2019-06-26T13:27:02.723Z,50.43
2019-06-26T13:29:31.201Z,51.42
2019-06-26T13:31:59.900Z,46.77
2019-06-26T13:34:28.366Z,57.88
2019-06-26T13:36:56.982Z,57.67
2019-06-26T13:39:25.624Z,44.75
2019-06-26T13:41:54.156Z,54.30
2019-06-26T13:44:22.638Z,53.13
2019-06-26T13:46:51.245Z,48.80
2019-06-26T13:49:19.760Z,53.58
2019-06-26T13:51:48.334Z,52.48
2019-06-26T13:54:16.949Z,47.80
2019-06-26T13:56:45.544Z,50.58
2019-06-26T13:59:14.105Z,43.40
2019-06-26T14:01:42.698Z,43.92
2019-06-26T14:04:11.402Z,52.38
2019-06-26T14:06:40.119Z,48.58
2019-06-26T14:09:08.648Z,47.05
2019-06-26T14:11:37.270Z,42.85
2019-06-26T14:14:05.870Z,40.92
2019-06-26T14:16:35.442Z,37.35
2019-06-26T14:19:04.003Z,36.50
2019-06-26T14:21:35.772Z,42.85
2019-06-26T14:24:04.510Z,38.55
2019-06-26T14:26:33.966Z,38.20
2019-06-26T14:29:02.802Z,38.65
2019-06-26T14:31:31.439Z,37.03
2019-06-26T14:33:59.930Z,38.17
2019-06-26T14:36:28.590Z,38.25
2019-06-26T14:38:57.254Z,33.58
2019-06-26T14:41:25.895Z,39.55
2019-06-26T14:43:54.699Z,35.88
2019-06-26T14:46:23.588Z,38.10
2019-06-26T14:48:52.172Z,32.98
2019-06-26T14:51:21.057Z,32.48
2019-06-26T14:53:49.993Z,34.78
2019-06-26T14:56:21.716Z,34.13
2019-06-26T14:58:51.468Z,38.02
2019-06-26T15:01:20.134Z,35.75
2019-06-26T15:03:48.815Z,31.30
2019-06-26T15:06:17.602Z,32.35
2019-06-26T15:08:46.134Z,32.08
2019-06-26T15:11:15.753Z,28.07
2019-06-26T15:13:44.599Z,31.55
2019-06-26T15:16:13.270Z,33.28
2019-06-26T15:18:42.164Z,28.50
2019-06-26T15:21:10.709Z,30.50
2019-06-26T15:23:41.075Z,28.00
2019-06-26T15:26:09.778Z,26.75
2019-06-26T15:28:38.532Z,32.33
2019-06-26T15:31:07.135Z,28.15
2019-06-26T15:33:36.671Z,26.75
2019-06-26T15:36:05.566Z,26.70
2019-06-26T15:38:34.152Z,24.15
2019-06-26T15:41:02.693Z,25.40
2019-06-26T15:43:31.504Z,25.52
2019-06-26T15:46:00.198Z,22.90
2019-06-26T15:48:28.923Z,26.70
2019-06-26T15:50:57.529Z,27.65
2019-06-26T15:53:26.101Z,27.87
2019-06-26T15:55:54.664Z,27.20
2019-06-26T15:58:23.259Z,31.35
2019-06-26T16:00:52.033Z,32.05
2019-06-26T16:03:20.591Z,28.23
2019-06-26T16:05:49.327Z,30.72
2019-06-26T16:08:18.300Z,31.02
2019-06-26T16:10:47.072Z,24.82
2019-06-26T16:13:15.763Z,28.92
2019-06-26T16:15:44.445Z,27.48
2019-06-26T16:18:24.918Z,26.77
2019-06-26T16:20:53.897Z,29.30
2019-06-26T16:23:22.628Z,26.30
2019-06-26T16:25:51.173Z,27.27
2019-06-26T16:28:19.899Z,27.58
2019-06-26T16:30:48.592Z,25.12
2019-06-26T16:33:17.341Z,23.90
2019-06-26T16:35:46.031Z,25.50
2019-06-26T16:38:14.623Z,26.42
2019-06-26T16:40:43.226Z,28.00
2019-06-26T16:43:11.945Z,27.52
2019-06-26T16:45:40.624Z,34.35
2019-06-26T16:48:09.159Z,26.95
2019-06-26T16:50:37.746Z,29.10
2019-06-26T16:53:06.384Z,28.35
2019-06-26T16:55:34.932Z,30.08
2019-06-26T16:58:03.713Z,27.30
2019-06-26T17:00:32.339Z,34.83
2019-06-26T17:03:00.898Z,31.73
2019-06-26T17:05:29.525Z,32.83
2019-06-26T17:07:58.304Z,35.68
2019-06-26T17:10:26.911Z,31.68
2019-06-26T17:12:55.533Z,30.37
2019-06-26T17:15:24.105Z,32.10
2019-06-26T17:17:52.793Z,35.03
2019-06-26T17:20:21.694Z,34.27
2019-06-26T17:23:04.479Z,31.55
2019-06-26T17:25:21.118Z,36.68
2019-06-26T17:27:50.207Z,35.13
2019-06-26T17:30:21.263Z,39.63
2019-06-26T17:32:50.244Z,33.83
2019-06-26T17:35:19.185Z,36.58
2019-06-26T17:37:47.874Z,31.35
2019-06-26T17:40:16.468Z,33.98
2019-06-26T17:42:45.057Z,34.70
2019-06-26T17:45:15.323Z,29.18
2019-06-26T17:47:44.051Z,22.52
2019-06-26T17:50:14.295Z,29.37
2019-06-26T17:52:43.240Z,24.90
2019-06-26T17:55:11.816Z,25.92
2019-06-26T17:57:40.708Z,22.40
2019-06-26T18:00:10.036Z,18.27
2019-06-26T18:02:38.833Z,24.02
2019-06-26T18:05:07.763Z,19.95
2019-06-26T18:07:38.443Z,14.68
2019-06-26T18:10:07.108Z,16.40
2019-06-26T18:12:36.829Z,20.17
2019-06-26T18:15:06.727Z,17.05
2019-06-26T18:17:35.362Z,15.68
2019-06-26T18:20:05.839Z,13.28
2019-06-26T18:22:34.587Z,19.20
2019-06-26T18:25:03.342Z,17.10
2019-06-26T18:27:32.146Z,12.33
2019-06-26T18:30:00.858Z,13.28
2019-06-26T18:32:29.772Z,11.47
2019-06-26T18:34:58.449Z,12.00
2019-06-26T18:37:28.392Z,13.32
2019-06-26T18:39:57.110Z,11.10
2019-06-26T18:42:25.795Z,10.48
2019-06-26T18:44:54.535Z,10.53
2019-06-26T18:47:23.047Z,11.68
2019-06-26T18:49:51.635Z,10.55
2019-06-26T18:52:21.366Z,11.10
2019-06-26T18:54:50.021Z,10.60
2019-06-26T18:57:18.762Z,10.98
2019-06-26T18:59:47.390Z,18.87
2019-06-26T19:02:16.202Z,16.42
2019-06-26T19:04:45.131Z,16.35
2019-06-26T19:07:13.771Z,17.95
2019-06-26T19:09:42.481Z,14.20
2019-06-26T19:12:11.371Z,16.27
2019-06-26T19:14:40.052Z,14.37
2019-06-26T19:17:08.804Z,13.13
2019-06-26T19:19:37.363Z,11.38
2019-06-26T19:22:06.094Z,11.97
2019-06-26T19:24:34.698Z,10.65
2019-06-26T19:27:07.266Z,12.18
2019-06-26T19:29:33.391Z,11.40
2019-06-26T19:32:01.930Z,12.40
2019-06-26T19:34:30.589Z,12.70
2019-06-26T19:36:59.331Z,13.87
2019-06-26T19:39:48.500Z,12.82
2019-06-26T19:42:45.778Z,11.33
2019-06-26T19:45:14.699Z,8.10
2019-06-26T19:47:43.311Z,10.93
2019-06-26T19:50:11.987Z,11.63
2019-06-26T19:52:40.660Z,10.97
2019-06-26T19:55:09.351Z,8.60
2019-06-26T19:57:41.029Z,8.07
2019-06-26T20:00:10.164Z,7.10
2019-06-26T20:02:38.797Z,10.03
2019-06-26T20:05:07.770Z,10.33
2019-06-26T20:07:36.518Z,10.85
2019-06-26T20:10:08.171Z,9.30
2019-06-26T20:12:36.864Z,8.40
2019-06-26T20:15:08.568Z,13.00
2019-06-26T20:17:37.343Z,10.83
2019-06-26T20:20:06.888Z,10.70
2019-06-26T20:22:35.900Z,8.98
2019-06-26T20:25:08.832Z,8.37
2019-06-26T20:27:38.799Z,7.53
2019-06-26T20:30:10.083Z,7.73
2019-06-26T20:32:39.027Z,9.87
2019-06-26T20:35:08.130Z,7.30
2019-06-26T20:37:38.438Z,9.03
2019-06-26T20:40:07.671Z,6.07
2019-06-26T20:42:37.970Z,12.27
2019-06-26T20:45:07.146Z,6.78
2019-06-26T20:47:35.825Z,8.40
2019-06-26T20:50:06.490Z,8.63
2019-06-26T20:52:38.165Z,9.03
2019-06-26T20:55:06.828Z,7.13
2019-06-26T20:57:35.405Z,8.13
2019-06-26T21:00:05.228Z,6.47
2019-06-26T21:02:33.904Z,6.57
2019-06-26T21:05:02.896Z,7.53
2019-06-26T21:07:31.458Z,6.45
2019-06-26T21:09:59.969Z,8.23
2019-06-26T21:12:28.751Z,5.75
2019-06-26T21:14:57.540Z,9.33
2019-06-26T21:17:26.201Z,6.87
2019-06-26T21:19:54.871Z,11.00
2019-06-26T21:22:23.361Z,7.77
2019-06-26T21:24:51.902Z,10.40
2019-06-26T21:27:20.587Z,10.07
2019-06-26T21:29:49.288Z,8.23
2019-06-26T21:32:18.013Z,7.73
2019-06-26T21:34:46.732Z,5.63
2019-06-26T21:37:15.295Z,7.03
2019-06-26T21:39:44.090Z,7.63
2019-06-26T21:42:13.124Z,11.07
2019-06-26T21:44:41.755Z,8.90
2019-06-26T21:47:10.337Z,8.63
2019-06-26T21:49:39.025Z,7.87
2019-06-26T21:52:08.300Z,7.53
2019-06-26T21:54:38.037Z,10.30
2019-06-26T21:57:09.269Z,7.33
2019-06-26T21:59:36.850Z,8.97
2019-06-26T22:02:05.373Z,7.83
2019-06-26T22:04:34.099Z,10.87
2019-06-26T22:07:02.650Z,10.73
2019-06-26T22:09:31.261Z,9.03
2019-06-26T22:12:00.837Z,9.20
2019-06-26T22:14:32.373Z,8.53
2019-06-26T22:17:01.486Z,11.13
2019-06-26T22:19:30.302Z,10.70
2019-06-26T22:21:58.897Z,10.43
2019-06-26T22:24:27.582Z,10.40
2019-06-26T22:26:56.786Z,12.27
2019-06-26T22:29:25.354Z,13.23
2019-06-26T22:31:54.012Z,9.07
2019-06-26T22:34:22.623Z,9.70
2019-06-26T22:36:52.236Z,11.60
2019-06-26T22:39:21.038Z,9.33
2019-06-26T22:41:49.497Z,9.73
2019-06-26T22:44:17.992Z,10.03
2019-06-26T22:46:46.681Z,6.93
2019-06-26T22:49:15.224Z,8.10
2019-06-26T22:51:43.822Z,8.20
2019-06-26T22:54:12.283Z,8.23
2019-06-26T22:56:41.074Z,9.00
2019-06-26T22:59:09.608Z,8.47
2019-06-26T23:01:38.142Z,6.73
2019-06-26T23:04:06.710Z,9.93
2019-06-26T23:06:37.448Z,9.30
2019-06-26T23:09:24.866Z,9.23
2019-06-26T23:11:53.455Z,7.07
2019-06-26T23:14:24.940Z,10.43
2019-06-26T23:16:53.488Z,10.97
2019-06-26T23:19:21.943Z,8.77
2019-06-26T23:21:52.299Z,12.83
2019-06-26T23:24:23.828Z,11.70
2019-06-26T23:26:52.644Z,10.93
2019-06-26T23:29:21.114Z,9.80
2019-06-26T23:31:49.631Z,10.73
2019-06-26T23:34:18.154Z,8.80
2019-06-26T23:36:46.699Z,11.27
2019-06-26T23:39:15.144Z,8.57
2019-06-26T23:41:43.613Z,8.67
2019-06-26T23:44:12.053Z,7.90
2019-06-26T23:46:40.500Z,10.60
2019-06-26T23:49:08.996Z,8.97
2019-06-26T23:51:37.576Z,9.53
2019-06-26T23:54:06.029Z,12.40
2019-06-26T23:56:40.475Z,9.87
2019-06-26T23:59:04.719Z,8.73
